createdAt,value
2017-07-02T00:01:54.937Z,101047.23
2017-07-02T00:04:27.301Z,101047.23
2017-07-02T00:06:59.700Z,101050.19
2017-07-02T00:09:32.148Z,101050.61
2017-07-02T00:12:04.481Z,101050.73
2017-07-02T00:14:36.717Z,101054.03
2017-07-02T00:17:09.197Z,101044.16
2017-07-02T00:19:41.586Z,101047.17
2017-07-02T00:22:13.881Z,101052.80
2017-07-02T00:24:46.209Z,101046.44
2017-07-02T00:27:18.685Z,101048.74
2017-07-02T00:29:51.045Z,101046.44
2017-07-02T00:32:23.529Z,101041.08
2017-07-02T00:34:56.056Z,101046.53
2017-07-02T00:37:28.149Z,101049.00
2017-07-02T00:40:00.477Z,101054.72
2017-07-02T00:42:32.957Z,101052.63
2017-07-02T00:45:05.268Z,101053.85
2017-07-02T00:47:37.580Z,101067.11
2017-07-02T00:50:10.017Z,101061.98
2017-07-02T00:52:42.541Z,101060.05
2017-07-02T00:55:14.961Z,101058.39
2017-07-02T00:57:47.469Z,101058.94
2017-07-02T01:00:19.848Z,101060.23
2017-07-02T01:02:53.193Z,101055.98
2017-07-02T01:05:25.511Z,101058.07
2017-07-02T01:07:57.905Z,101059.77
2017-07-02T01:10:30.342Z,101054.02
2017-07-02T01:13:02.985Z,101062.27
2017-07-02T01:15:35.201Z,101054.76
2017-07-02T01:18:07.568Z,101060.95
2017-07-02T01:20:40.147Z,101059.83
2017-07-02T01:23:12.303Z,101052.02
2017-07-02T01:25:44.540Z,101067.35
2017-07-02T01:28:18.188Z,101054.09
2017-07-02T01:30:50.424Z,101059.05
2017-07-02T01:33:22.783Z,101056.63
2017-07-02T01:35:55.055Z,101059.12
2017-07-02T01:38:27.988Z,101056.89
2017-07-02T01:40:59.916Z,101058.80
2017-07-02T01:43:32.348Z,101055.80
2017-07-02T01:46:05.517Z,101058.00
2017-07-02T01:48:37.924Z,101058.52
2017-07-02T01:51:10.341Z,101055.82
2017-07-02T01:53:42.604Z,101058.88
2017-07-02T01:56:14.943Z,101055.05
2017-07-02T01:58:47.307Z,101054.89
2017-07-02T02:01:31.972Z,101055.13
2017-07-02T02:04:04.080Z,101061.00
2017-07-02T02:06:36.441Z,101058.77
2017-07-02T02:09:08.228Z,101053.41
2017-07-02T02:11:40.584Z,101051.48
2017-07-02T02:14:13.163Z,101054.88
2017-07-02T02:16:45.460Z,101057.50
2017-07-02T02:19:17.868Z,101048.92
2017-07-02T02:21:50.264Z,101051.31
2017-07-02T02:24:22.628Z,101049.23
2017-07-02T02:26:54.962Z,101047.37
2017-07-02T02:29:27.436Z,101047.23
2017-07-02T02:31:59.824Z,101056.73
2017-07-02T02:34:32.209Z,101052.05
2017-07-02T02:37:04.656Z,101051.86
2017-07-02T02:39:37.866Z,101057.20
2017-07-02T02:42:10.343Z,101053.65
2017-07-02T02:44:42.725Z,101053.77
2017-07-02T02:47:15.068Z,101051.86
2017-07-02T02:49:47.462Z,101043.67
2017-07-02T02:52:19.861Z,101044.81
2017-07-02T02:54:52.404Z,101048.15
2017-07-02T02:57:24.429Z,101043.55
2017-07-02T02:59:56.848Z,101049.45
2017-07-02T03:02:29.187Z,101049.66
2017-07-02T03:05:01.816Z,101056.52
2017-07-02T03:07:33.872Z,101058.58
2017-07-02T03:10:06.245Z,101060.52
2017-07-02T03:12:38.588Z,101056.53
2017-07-02T03:15:11.015Z,101051.52
2017-07-02T03:17:43.443Z,101054.23
2017-07-02T03:20:15.873Z,101056.50
2017-07-02T03:22:48.225Z,101061.26
2017-07-02T03:25:20.536Z,101065.58
2017-07-02T03:27:53.817Z,101068.55
2017-07-02T03:30:26.306Z,101064.27
2017-07-02T03:32:58.724Z,101075.72
2017-07-02T03:35:31.226Z,101070.02
2017-07-02T03:38:03.136Z,101064.11
2017-07-02T03:40:35.496Z,101073.09
2017-07-02T03:43:07.816Z,101071.44
2017-07-02T03:45:40.192Z,101077.77
2017-07-02T03:48:12.792Z,101074.57
2017-07-02T03:50:44.828Z,101077.62
2017-07-02T03:53:17.216Z,101080.64
2017-07-02T03:55:49.589Z,101073.24
2017-07-02T03:58:22.068Z,101081.02
2017-07-02T04:00:54.500Z,101072.53
2017-07-02T04:03:27.361Z,101077.74
2017-07-02T04:05:59.232Z,101071.81
2017-07-02T04:08:32.526Z,101077.99
2017-07-02T04:11:04.931Z,101092.10
2017-07-02T04:13:37.349Z,101083.08
2017-07-02T04:16:09.809Z,101087.16
2017-07-02T04:18:42.314Z,101089.73
2017-07-02T04:21:14.760Z,101085.95
2017-07-02T04:23:47.209Z,101085.66
2017-07-02T04:26:19.575Z,101091.88
2017-07-02T04:28:52.059Z,101078.61
2017-07-02T04:31:24.351Z,101089.62
2017-07-02T04:33:56.691Z,101085.75
2017-07-02T04:36:29.231Z,101083.47
2017-07-02T04:39:01.462Z,101087.13
2017-07-02T04:41:33.927Z,101091.45
2017-07-02T04:44:06.168Z,101080.41
2017-07-02T04:46:38.510Z,101081.13
2017-07-02T04:49:11.260Z,101086.80
2017-07-02T04:51:43.428Z,101085.16
2017-07-02T04:54:15.832Z,101089.72
2017-07-02T04:56:48.485Z,101093.06
2017-07-02T04:59:20.625Z,101092.84
2017-07-02T05:01:53.045Z,101089.98
2017-07-02T05:04:25.404Z,101097.75
2017-07-02T05:06:57.765Z,101091.47
2017-07-02T05:09:30.081Z,101095.59
2017-07-02T05:12:09.431Z,101098.18
2017-07-02T05:14:41.841Z,101099.23
2017-07-02T05:17:14.175Z,101104.08
2017-07-02T05:19:46.695Z,101103.29
2017-07-02T05:22:19.192Z,101105.42
2017-07-02T05:24:52.135Z,101103.41
2017-07-02T05:27:24.942Z,101104.80
2017-07-02T05:29:57.421Z,101094.41
2017-07-02T05:32:29.892Z,101105.78
2017-07-02T05:35:02.268Z,101102.27
2017-07-02T05:37:34.665Z,101106.41
2017-07-02T05:40:07.430Z,101101.08
2017-07-02T05:42:39.495Z,101095.91
2017-07-02T05:45:11.839Z,101095.88
2017-07-02T05:47:44.375Z,101096.70
2017-07-02T05:50:16.604Z,101092.25
2017-07-02T05:52:49.068Z,101095.78
2017-07-02T05:55:21.561Z,101092.65
2017-07-02T05:57:54.197Z,101096.27
2017-07-02T06:00:26.732Z,101104.55
2017-07-02T06:02:58.737Z,101094.84
2017-07-02T06:05:31.162Z,101098.16
2017-07-02T06:08:03.573Z,101102.50
2017-07-02T06:10:35.888Z,101090.06
2017-07-02T06:13:08.472Z,101099.78
2017-07-02T06:15:41.045Z,101098.77
2017-07-02T06:18:13.772Z,101096.64
2017-07-02T06:20:45.848Z,101103.23
2017-07-02T06:23:18.215Z,101107.23
2017-07-02T06:25:50.653Z,101100.37
2017-07-02T06:28:23.204Z,101100.61
2017-07-02T06:30:55.421Z,101098.27
2017-07-02T06:33:27.892Z,101102.16
2017-07-02T06:36:00.261Z,101105.33
2017-07-02T06:38:32.656Z,101099.88
2017-07-02T06:41:05.640Z,101106.81
2017-07-02T06:43:38.318Z,101113.19
2017-07-02T06:46:10.679Z,101108.70
2017-07-02T06:48:43.096Z,101112.42
2017-07-02T06:51:16.305Z,101111.05
2017-07-02T06:53:48.735Z,101113.70
2017-07-02T06:56:21.112Z,101109.71
2017-07-02T06:58:54.548Z,101108.61
2017-07-02T07:01:26.883Z,101108.42
2017-07-02T07:03:59.148Z,101108.15
2017-07-02T07:06:31.604Z,101113.53
2017-07-02T07:09:04.023Z,101108.86
2017-07-02T07:11:36.560Z,101111.68
2017-07-02T07:14:08.690Z,101110.83
2017-07-02T07:16:41.111Z,101112.25
2017-07-02T07:19:13.476Z,101109.77
2017-07-02T07:21:45.836Z,101115.07
2017-07-02T07:24:18.120Z,101111.53
2017-07-02T07:26:50.679Z,101105.55
2017-07-02T07:29:23.292Z,101106.11
2017-07-02T07:31:55.449Z,101109.83
2017-07-02T07:34:27.961Z,101104.75
2017-07-02T07:37:00.387Z,101109.08
2017-07-02T07:39:33.077Z,101093.88
2017-07-02T07:42:05.241Z,101102.42
2017-07-02T07:44:37.711Z,101100.51
2017-07-02T07:47:10.028Z,101110.99
2017-07-02T07:49:42.721Z,101114.05
2017-07-02T07:52:14.820Z,101113.44
2017-07-02T07:54:47.261Z,101108.05
2017-07-02T07:57:19.790Z,101108.39
2017-07-02T07:59:52.187Z,101110.74
2017-07-02T08:02:24.637Z,101104.70
2017-07-02T08:04:57.028Z,101108.05
2017-07-02T08:07:29.484Z,101115.81
2017-07-02T08:10:01.991Z,101113.44
2017-07-02T08:12:34.291Z,101116.13
2017-07-02T08:15:06.812Z,101118.81
2017-07-02T08:17:40.239Z,101118.63
2017-07-02T08:20:12.417Z,101130.61
2017-07-02T08:22:45.174Z,101136.02
2017-07-02T08:25:17.238Z,101127.70
2017-07-02T08:27:51.212Z,101125.33
2017-07-02T08:30:23.136Z,101132.82
2017-07-02T08:32:55.585Z,101132.06
2017-07-02T08:35:28.096Z,101129.25
2017-07-02T08:38:00.413Z,101133.60
2017-07-02T08:40:33.059Z,101136.65
2017-07-02T08:43:05.215Z,101133.95
2017-07-02T08:45:37.547Z,101148.23
2017-07-02T08:48:10.007Z,101151.38
2017-07-02T08:50:42.908Z,101147.62
2017-07-02T08:53:14.771Z,101140.86
2017-07-02T08:55:47.193Z,101142.51
2017-07-02T08:58:19.544Z,101149.39
2017-07-02T09:00:52.099Z,101151.89
2017-07-02T09:03:31.393Z,101154.41
2017-07-02T09:06:04.341Z,101149.02
2017-07-02T09:08:36.092Z,101151.66
2017-07-02T09:11:08.442Z,101149.96
2017-07-02T09:13:40.719Z,101155.85
2017-07-02T09:16:13.197Z,101151.14
2017-07-02T09:18:45.441Z,101159.37
2017-07-02T09:21:17.834Z,101158.30
2017-07-02T09:23:50.155Z,101159.50
2017-07-02T09:26:22.901Z,101161.45
2017-07-02T09:28:55.005Z,101161.31
2017-07-02T09:31:27.316Z,101168.02
2017-07-02T09:34:00.121Z,101174.85
2017-07-02T09:36:32.097Z,101175.75
2017-07-02T09:39:04.454Z,101176.97
2017-07-02T09:41:36.963Z,101181.12
2017-07-02T09:44:09.227Z,101182.41
2017-07-02T09:46:41.779Z,101180.92
2017-07-02T09:49:14.075Z,101183.27
2017-07-02T09:51:46.549Z,101186.19
2017-07-02T09:54:18.896Z,101193.50
2017-07-02T09:56:51.290Z,101197.86
2017-07-02T09:59:23.577Z,101192.38
2017-07-02T10:01:55.940Z,101193.07
2017-07-02T10:04:28.317Z,101200.70
2017-07-02T10:07:00.609Z,101193.30
2017-07-02T10:09:33.823Z,101195.02
2017-07-02T10:12:06.453Z,101204.31
2017-07-02T10:14:39.949Z,101207.64
2017-07-02T10:17:12.339Z,101196.64
2017-07-02T10:19:44.701Z,101204.72
2017-07-02T10:22:17.185Z,101202.98
2017-07-02T10:24:50.587Z,101209.55
2017-07-02T10:27:23.893Z,101209.10
2017-07-02T10:29:56.416Z,101203.58
2017-07-02T10:32:28.940Z,101206.76
2017-07-02T10:35:01.256Z,101212.25
2017-07-02T10:37:33.789Z,101220.20
2017-07-02T10:40:06.073Z,101211.91
2017-07-02T10:42:38.537Z,101212.22
2017-07-02T10:45:10.880Z,101218.48
2017-07-02T10:47:43.264Z,101219.31
2017-07-02T10:50:15.617Z,101218.11
2017-07-02T10:52:47.919Z,101219.67
2017-07-02T10:55:20.272Z,101221.22
2017-07-02T10:57:52.657Z,101224.47
2017-07-02T11:00:25.157Z,101230.44
2017-07-02T11:02:57.573Z,101234.88
2017-07-02T11:05:29.945Z,101236.77
2017-07-02T11:08:02.257Z,101240.78
2017-07-02T11:10:34.854Z,101231.95
2017-07-02T11:13:07.302Z,101231.64
2017-07-02T11:15:39.536Z,101232.98
2017-07-02T11:18:11.857Z,101232.36
2017-07-02T11:20:44.344Z,101231.56
2017-07-02T11:23:16.755Z,101230.67
2017-07-02T11:25:49.092Z,101232.52
2017-07-02T11:28:21.558Z,101225.47
2017-07-02T11:30:53.944Z,101231.98
2017-07-02T11:33:26.265Z,101228.97
2017-07-02T11:35:58.856Z,101226.16
2017-07-02T11:38:31.158Z,101232.80
2017-07-02T11:41:03.887Z,101233.87
2017-07-02T11:43:36.041Z,101236.60
2017-07-02T11:46:08.366Z,101234.74
2017-07-02T11:48:40.728Z,101231.58
2017-07-02T11:51:13.101Z,101228.92
2017-07-02T11:53:46.344Z,101235.25
2017-07-02T11:56:19.213Z,101244.20
2017-07-02T11:58:51.177Z,101242.55
2017-07-02T12:01:23.613Z,101243.72
2017-07-02T12:03:56.009Z,101242.00
2017-07-02T12:06:28.312Z,101241.27
2017-07-02T12:09:00.657Z,101236.89
2017-07-02T12:11:33.315Z,101242.37
2017-07-02T12:14:05.889Z,101229.19
2017-07-02T12:16:37.896Z,101235.95
2017-07-02T12:19:10.157Z,101236.30
2017-07-02T12:21:42.464Z,101238.28
2017-07-02T12:24:14.828Z,101243.06
2017-07-02T12:26:47.239Z,101245.36
2017-07-02T12:29:20.612Z,101245.60
2017-07-02T12:31:53.000Z,101239.14
2017-07-02T12:34:25.599Z,101244.14
2017-07-02T12:36:57.860Z,101246.50
2017-07-02T12:39:30.252Z,101240.91
2017-07-02T12:42:02.773Z,101237.06
2017-07-02T12:44:35.141Z,101227.49
2017-07-02T12:47:07.615Z,101233.60
2017-07-02T12:49:39.971Z,101233.80
2017-07-02T12:52:12.339Z,101230.02
2017-07-02T12:54:44.712Z,101236.65
2017-07-02T12:57:17.090Z,101230.78
2017-07-02T12:59:49.343Z,101229.17
2017-07-02T13:02:21.688Z,101229.16
2017-07-02T13:04:54.207Z,101229.16
2017-07-02T13:07:26.661Z,101230.83
2017-07-02T13:09:59.035Z,101229.08
2017-07-02T13:12:31.280Z,101232.33
2017-07-02T13:15:05.178Z,101244.52
2017-07-02T13:17:38.006Z,101251.38
2017-07-02T13:20:10.312Z,101252.30
2017-07-02T13:22:42.716Z,101247.24
2017-07-02T13:25:15.116Z,101252.34
2017-07-02T13:27:47.565Z,101249.30
2017-07-02T13:30:19.901Z,101248.80
2017-07-02T13:32:52.270Z,101253.11
2017-07-02T13:35:24.660Z,101250.32
2017-07-02T13:37:57.953Z,101249.66
2017-07-02T13:40:30.468Z,101250.47
2017-07-02T13:43:02.864Z,101244.72
2017-07-02T13:45:35.178Z,101259.48
2017-07-02T13:48:07.532Z,101261.80
2017-07-02T13:50:39.929Z,101262.75
2017-07-02T13:53:12.284Z,101263.09
2017-07-02T13:55:44.731Z,101269.02
2017-07-02T13:58:17.121Z,101265.85
2017-07-02T14:00:49.471Z,101257.09
2017-07-02T14:03:21.847Z,101263.38
2017-07-02T14:05:54.345Z,101262.83
2017-07-02T14:08:26.617Z,101260.09
2017-07-02T14:10:59.267Z,101263.05
2017-07-02T14:13:31.644Z,101260.52
2017-07-02T14:16:04.683Z,101267.20
2017-07-02T14:18:37.105Z,101267.59
2017-07-02T14:21:09.449Z,101267.19
2017-07-02T14:23:41.840Z,101276.95
2017-07-02T14:26:14.559Z,101274.23
2017-07-02T14:28:46.636Z,101272.67
2017-07-02T14:31:19.059Z,101287.56
2017-07-02T14:33:51.778Z,101290.28
2017-07-02T14:36:23.741Z,101289.71
2017-07-02T14:38:56.177Z,101297.80
2017-07-02T14:41:28.516Z,101296.92
2017-07-02T14:44:00.865Z,101297.94
2017-07-02T14:46:33.243Z,101295.89
2017-07-02T14:49:05.587Z,101302.21
2017-07-02T14:51:38.079Z,101307.51
2017-07-02T14:54:10.325Z,101317.36
2017-07-02T14:56:42.636Z,101309.55
2017-07-02T14:59:15.058Z,101319.15
2017-07-02T15:02:02.299Z,101307.11
2017-07-02T15:04:35.092Z,101301.56
2017-07-02T15:07:07.526Z,101303.67
2017-07-02T15:09:40.041Z,101310.31
2017-07-02T15:12:12.356Z,101311.69
2017-07-02T15:14:45.207Z,101318.17
2017-07-02T15:17:19.306Z,101311.35
2017-07-02T15:19:53.188Z,101319.68
2017-07-02T15:22:26.999Z,101318.21
2017-07-02T15:24:59.793Z,101317.17
2017-07-02T15:27:32.591Z,101326.64
2017-07-02T15:30:04.649Z,101329.41
2017-07-02T15:32:38.091Z,101325.72
2017-07-02T15:35:10.446Z,101333.22
2017-07-02T15:37:42.882Z,101332.19
2017-07-02T15:40:15.225Z,101331.63
2017-07-02T15:42:47.573Z,101338.61
2017-07-02T15:45:19.916Z,101336.00
2017-07-02T15:47:52.996Z,101331.92
2017-07-02T15:50:26.681Z,101336.09
2017-07-02T15:52:59.216Z,101337.38
2017-07-02T15:55:31.504Z,101334.26
2017-07-02T15:58:03.992Z,101331.02
2017-07-02T16:00:36.201Z,101327.13
2017-07-02T16:03:08.997Z,101330.38
2017-07-02T16:05:41.196Z,101330.12
2017-07-02T16:08:13.659Z,101336.41
2017-07-02T16:10:45.936Z,101334.59
2017-07-02T16:13:18.394Z,101331.38
2017-07-02T16:15:50.844Z,101331.72
2017-07-02T16:18:23.180Z,101333.88
2017-07-02T16:20:55.700Z,101332.75
2017-07-02T16:23:29.112Z,101331.38
2017-07-02T16:26:01.465Z,101345.05
2017-07-02T16:28:33.940Z,101350.24
2017-07-02T16:31:06.384Z,101348.21
2017-07-02T16:33:39.075Z,101344.38
2017-07-02T16:36:10.968Z,101352.01
2017-07-02T16:38:43.507Z,101349.97
2017-07-02T16:41:15.681Z,101344.67
2017-07-02T16:43:48.068Z,101353.82
2017-07-02T16:46:20.461Z,101354.45
2017-07-02T16:48:53.805Z,101351.65
2017-07-02T16:51:26.436Z,101354.36
2017-07-02T16:53:58.744Z,101358.38
2017-07-02T16:56:31.195Z,101363.28
2017-07-02T16:59:03.669Z,101370.08
2017-07-02T17:01:36.225Z,101376.04
2017-07-02T17:04:08.603Z,101380.02
2017-07-02T17:06:40.942Z,101375.79
2017-07-02T17:09:13.341Z,101389.91
2017-07-02T17:11:45.690Z,101391.46
2017-07-02T17:14:18.132Z,101390.36
2017-07-02T17:16:51.051Z,101397.98
2017-07-02T17:19:22.787Z,101393.61
2017-07-02T17:21:55.185Z,101398.25
2017-07-02T17:24:27.715Z,101403.81
2017-07-02T17:27:00.012Z,101406.13
2017-07-02T17:29:32.692Z,101405.69
2017-07-02T17:32:04.678Z,101405.55
2017-07-02T17:34:37.488Z,101409.11
2017-07-02T17:37:09.634Z,101410.92
2017-07-02T17:39:42.367Z,101413.60
2017-07-02T17:42:14.314Z,101423.41
2017-07-02T17:44:46.656Z,101421.67
2017-07-02T17:47:19.101Z,101427.03
2017-07-02T17:49:51.377Z,101430.18
2017-07-02T17:52:24.252Z,101430.85
2017-07-02T17:54:56.115Z,101434.26
2017-07-02T17:57:28.557Z,101425.88
2017-07-02T18:00:00.944Z,101437.36
2017-07-02T18:02:33.237Z,101445.72
2017-07-02T18:05:05.524Z,101443.20
2017-07-02T18:07:38.436Z,101443.73
2017-07-02T18:10:10.556Z,101451.02
2017-07-02T18:12:42.906Z,101445.91
2017-07-02T18:15:15.340Z,101446.92
2017-07-02T18:17:48.198Z,101454.69
2017-07-02T18:20:20.263Z,101450.41
2017-07-02T18:22:52.583Z,101450.92
2017-07-02T18:25:26.630Z,101449.50
2017-07-02T18:27:59.364Z,101451.25
2017-07-02T18:30:31.685Z,101451.67
2017-07-02T18:33:04.126Z,101455.41
2017-07-02T18:35:36.673Z,101451.84
2017-07-02T18:38:09.205Z,101451.45
2017-07-02T18:40:41.779Z,101458.59
2017-07-02T18:43:13.864Z,101467.26
2017-07-02T18:45:46.544Z,101466.02
2017-07-02T18:48:18.951Z,101470.26
2017-07-02T18:50:51.355Z,101473.63
2017-07-02T18:53:23.724Z,101467.27
2017-07-02T18:55:56.146Z,101476.12
2017-07-02T18:58:28.482Z,101476.34
2017-07-02T19:01:00.847Z,101482.06
2017-07-02T19:03:33.264Z,101484.33
2017-07-02T19:06:05.631Z,101488.91
2017-07-02T19:08:39.628Z,101491.94
2017-07-02T19:11:11.445Z,101501.81
2017-07-02T19:13:43.964Z,101503.22
2017-07-02T19:16:16.400Z,101499.57
2017-07-02T19:18:49.852Z,101503.91
2017-07-02T19:21:22.428Z,101519.13
2017-07-02T19:23:54.638Z,101517.55
2017-07-02T19:26:27.185Z,101522.95
2017-07-02T19:28:59.521Z,101522.86
2017-07-02T19:31:33.026Z,101522.84
2017-07-02T19:34:05.430Z,101524.21
2017-07-02T19:36:37.873Z,101535.27
2017-07-02T19:39:10.232Z,101533.38
2017-07-02T19:41:43.139Z,101542.80
2017-07-02T19:44:16.333Z,101545.36
2017-07-02T19:46:49.020Z,101538.41
2017-07-02T19:49:21.076Z,101547.39
2017-07-02T19:51:53.556Z,101552.77
2017-07-02T19:54:26.109Z,101553.89
2017-07-02T19:56:58.547Z,101549.69
2017-07-02T19:59:30.945Z,101558.15
2017-07-02T20:02:03.392Z,101567.32
2017-07-02T20:04:35.737Z,101562.95
2017-07-02T20:07:08.216Z,101570.47
2017-07-02T20:09:40.577Z,101577.48
2017-07-02T20:12:13.080Z,101582.14
2017-07-02T20:14:45.459Z,101581.06
2017-07-02T20:17:17.817Z,101583.92
2017-07-02T20:19:50.184Z,101589.41
2017-07-02T20:22:22.672Z,101586.67
2017-07-02T20:24:55.026Z,101593.80
2017-07-02T20:27:27.420Z,101592.97
2017-07-02T20:29:59.840Z,101593.58
2017-07-02T20:32:32.377Z,101602.15
2017-07-02T20:35:04.834Z,101599.51
2017-07-02T20:37:37.051Z,101606.45
2017-07-02T20:40:09.478Z,101607.05
2017-07-02T20:42:41.817Z,101604.55
2017-07-02T20:45:14.345Z,101611.89
2017-07-02T20:47:46.825Z,101611.41
2017-07-02T20:50:19.108Z,101615.38
2017-07-02T20:52:51.528Z,101619.13
2017-07-02T20:55:23.977Z,101621.48
2017-07-02T20:57:56.305Z,101620.97
2017-07-02T21:00:28.633Z,101617.62
2017-07-02T21:03:01.066Z,101617.14
2017-07-02T21:05:33.508Z,101617.09
2017-07-02T21:08:06.163Z,101620.28
2017-07-02T21:10:39.204Z,101618.62
2017-07-02T21:13:11.760Z,101628.84
2017-07-02T21:15:44.297Z,101627.69
2017-07-02T21:18:17.531Z,101628.45
2017-07-02T21:20:50.085Z,101626.91
2017-07-02T21:23:22.537Z,101625.37
2017-07-02T21:25:54.868Z,101625.14
2017-07-02T21:28:27.351Z,101634.28
2017-07-02T21:30:59.907Z,101636.13
2017-07-02T21:33:32.088Z,101642.14
2017-07-02T21:36:04.450Z,101637.11
2017-07-02T21:38:37.715Z,101633.72
2017-07-02T21:41:10.088Z,101635.73
2017-07-02T21:43:42.524Z,101635.92
2017-07-02T21:46:15.583Z,101637.65
2017-07-02T21:48:48.301Z,101640.31
2017-07-02T21:51:20.949Z,101641.16
2017-07-02T21:53:53.087Z,101643.48
2017-07-02T21:56:25.455Z,101656.75
2017-07-02T21:58:57.984Z,101658.66
2017-07-02T22:01:30.328Z,101657.21
2017-07-02T22:04:02.708Z,101660.00
2017-07-02T22:06:35.033Z,101664.25
2017-07-02T22:09:07.493Z,101663.47
2017-07-02T22:11:39.792Z,101663.20
2017-07-02T22:14:12.237Z,101667.95
2017-07-02T22:16:44.672Z,101664.85
2017-07-02T22:19:16.985Z,101671.03
2017-07-02T22:21:49.405Z,101666.03
2017-07-02T22:24:21.818Z,101669.77
2017-07-02T22:26:54.181Z,101671.42
2017-07-02T22:29:26.856Z,101672.38
2017-07-02T22:31:59.053Z,101674.72
2017-07-02T22:34:31.520Z,101667.31
2017-07-02T22:37:03.972Z,101679.40
2017-07-02T22:39:36.417Z,101684.53
2017-07-02T22:42:08.755Z,101675.91
2017-07-02T22:44:41.901Z,101680.44
2017-07-02T22:47:14.797Z,101679.98
2017-07-02T22:49:46.945Z,101682.77
2017-07-02T22:52:19.654Z,101679.31
2017-07-02T22:54:52.805Z,101680.87
2017-07-02T22:57:25.126Z,101681.31
2017-07-02T22:59:57.925Z,101692.06
2017-07-02T23:02:29.875Z,101686.68
2017-07-02T23:05:02.268Z,101692.97
2017-07-02T23:07:34.620Z,101691.98
2017-07-02T23:10:06.988Z,101695.78
2017-07-02T23:12:39.443Z,101699.67
2017-07-02T23:15:11.960Z,101696.46
2017-07-02T23:17:44.169Z,101693.48
2017-07-02T23:20:16.586Z,101688.61
2017-07-02T23:22:48.925Z,101698.22
2017-07-02T23:25:21.269Z,101704.75
2017-07-02T23:27:53.617Z,101703.52
2017-07-02T23:30:25.992Z,101692.97
2017-07-02T23:32:58.371Z,101700.72
2017-07-02T23:35:30.823Z,101697.32
2017-07-02T23:38:03.205Z,101699.14
2017-07-02T23:40:35.519Z,101703.55
2017-07-02T23:43:07.921Z,101707.20
2017-07-02T23:45:40.397Z,101704.59
2017-07-02T23:48:12.681Z,101708.23
2017-07-02T23:50:45.176Z,101710.42
2017-07-02T23:53:17.478Z,101711.20
2017-07-02T23:55:49.821Z,101715.78
2017-07-02T23:58:22.098Z,101714.58
